Time;durP1;ratioP1;P1;durP2;ratioP2;P2;SDS_P1;SDS_P2;PMS_P1;PMS_P2;Temp;Humidity;BMP_temperature;BMP_pressure;BME280_temperature;BME280_humidity;BME280_pressure;Samples;Min_cycle;Max_cycle;Signal;HPM_P1;HPM_P2
2023/01/04 00:00:16;;;;;;;;;;;;;;;4.32;78.37;99207.81;4986548;28;20291;-60
2023/01/04 00:02:44;;;;;;;;;;;;;;;4.29;78.31;99210.97;4992395;28;20506;-62
2023/01/04 00:05:12;;;;;;;;;;;;;;;4.26;78.49;99200.66;4990747;28;20036;-59
2023/01/04 00:07:40;;;;;;;;;;;;;;;4.36;78.55;99203.56;4992931;28;19925;-60
2023/01/04 00:10:08;;;;;;;;;;;;;;;4.34;77.95;99208.38;4992064;28;19984;-59
2023/01/04 00:12:36;;;;;;;;;;;;;;;4.20;78.59;99213.19;4992769;28;19925;-60
2023/01/04 00:17:58;;;;;;;;;;;;;;;4.15;78.69;99216.59;4992353;28;19961;-59
2023/01/04 00:20:26;;;;;;;;;;;;;;;4.13;78.78;99213.34;4993788;28;20315;-59
2023/01/04 00:22:54;;;;;;;;;;;;;;;4.19;78.94;99212.38;4992646;28;19974;-59
2023/01/04 00:25:24;;;;;;;;;;;;;;;4.23;78.76;99211.91;4991786;28;20394;-63
2023/01/04 00:27:52;;;;;;;;;;;;;;;4.17;78.78;99219.06;4989758;28;19976;-59
2023/01/04 00:30:20;;;;;;;;;;;;;;;4.05;78.88;99211.03;4999280;28;19933;-59
2023/01/04 00:32:48;;;;;;;;;;;;;;;4.10;79.39;99213.81;4991287;28;19952;-59
2023/01/04 00:35:17;;;;;;;;;;;;;;;4.16;79.22;99207.50;4995707;28;19940;-59
2023/01/04 00:38:05;;;;;;;;;;;;;;;4.17;78.92;99205.63;4985286;28;19925;-59
2023/01/04 00:40:34;;;;;;;;;;;;;;;4.08;79.17;99205.16;5011170;28;19933;-60
2023/01/04 00:43:02;;;;;;;;;;;;;;;4.12;78.52;99206.31;4995893;28;19948;-59
2023/01/04 00:45:30;;;;;;;;;;;;;;;4.08;78.86;99207.84;4989345;28;20046;-59
2023/01/04 00:47:58;;;;;;;;;;;;;;;4.02;78.49;99205.28;4994169;28;19930;-59
2023/01/04 00:50:28;;;;;;;;;;;;;;;4.12;78.08;99195.56;4995692;28;19926;-59
2023/01/04 00:52:59;;;;;;;;;;;;;;;4.01;78.29;99193.72;4991311;28;20411;-60
2023/01/04 00:55:51;;;;;;;;;;;;;;;3.85;78.60;99189.09;5009644;28;19934;-59
2023/01/04 00:58:20;;;;;;;;;;;;;;;3.85;78.90;99183.72;4996888;28;19926;-60
2023/01/04 01:00:48;;;;;;;;;;;;;;;3.89;78.08;99174.13;4993259;28;19968;-59
2023/01/04 01:03:16;;;;;;;;;;;;;;;3.90;78.43;99173.06;4997728;28;19933;-59
2023/01/04 01:05:46;;;;;;;;;;;;;;;3.80;78.71;99179.03;4997656;28;19930;-60
2023/01/04 01:08:26;;;;;;;;;;;;;;;3.74;78.70;99179.97;4995457;28;20000;-61
2023/01/04 01:10:54;;;;;;;;;;;;;;;3.65;79.00;99179.50;4998061;28;19980;-64
2023/01/04 01:13:22;;;;;;;;;;;;;;;3.68;79.18;99176.38;4994746;28;20390;-61
2023/01/04 01:15:51;;;;;;;;;;;;;;;3.68;79.45;99176.38;4991153;28;19926;-59
2023/01/04 01:18:19;;;;;;;;;;;;;;;3.90;78.94;99175.75;4995796;28;19937;-59
2023/01/04 01:20:48;;;;;;;;;;;;;;;3.88;79.48;99178.66;4994304;28;19934;-60
2023/01/04 01:23:16;;;;;;;;;;;;;;;3.95;78.64;99175.84;4993931;28;19925;-59
2023/01/04 01:25:44;;;;;;;;;;;;;;;3.93;78.67;99175.25;4994471;28;19980;-65
2023/01/04 01:28:17;;;;;;;;;;;;;;;3.94;78.96;99176.88;4993291;28;20009;-59
2023/01/04 01:30:46;;;;;;;;;;;;;;;3.86;78.95;99182.66;4989760;28;19968;-58
2023/01/04 01:33:14;;;;;;;;;;;;;;;3.92;79.49;99185.19;4985906;28;19932;-59
2023/01/04 01:35:42;;;;;;;;;;;;;;;3.92;79.58;99189.75;4990766;28;19930;-64
2023/01/04 01:38:11;;;;;;;;;;;;;;;3.83;79.64;99189.28;4995634;28;19930;-59
2023/01/04 01:40:41;;;;;;;;;;;;;;;3.90;79.73;99175.75;4997374;28;19972;-60
2023/01/04 01:43:13;;;;;;;;;;;;;;;3.90;79.56;99175.75;4994936;28;19932;-59
2023/01/04 01:45:41;;;;;;;;;;;;;;;3.82;80.09;99171.53;4986521;28;19925;-59
2023/01/04 01:48:10;;;;;;;;;;;;;;;3.86;79.86;99172.72;4994339;28;19937;-59
2023/01/04 01:50:39;;;;;;;;;;;;;;;3.89;79.78;99174.13;4994810;28;19927;-59
2023/01/04 01:53:33;;;;;;;;;;;;;;;3.90;79.77;99175.75;4996520;28;19925;-59
2023/01/04 01:56:02;;;;;;;;;;;;;;;3.86;79.43;99175.41;4986288;28;19972;-59
2023/01/04 02:01:24;;;;;;;;;;;;;;;3.78;79.61;99177.63;4987439;28;19961;-59
2023/01/04 02:03:53;;;;;;;;;;;;;;;3.71;79.66;99180.44;4993009;28;19926;-59
2023/01/04 02:06:22;;;;;;;;;;;;;;;3.68;80.25;99184.44;4990570;28;19929;-62
2023/01/04 02:08:50;;;;;;;;;;;;;;;3.70;80.24;99175.31;4990916;28;19929;-59
2023/01/04 02:11:42;;;;;;;;;;;;;;;3.67;79.49;99172.06;4993002;28;19929;-60
2023/01/04 02:14:27;;;;;;;;;;;;;;;3.52;80.51;99178.94;4991946;28;19961;-60
2023/01/04 02:17:01;;;;;;;;;;;;;;;3.56;80.48;99164.78;4987314;28;19925;-61
2023/01/04 02:19:49;;;;;;;;;;;;;;;3.61;80.41;99174.84;4994431;28;20268;-59
2023/01/04 02:22:30;;;;;;;;;;;;;;;3.59;80.95;99168.88;4990872;28;19948;-59
2023/01/04 02:25:23;;;;;;;;;;;;;;;3.59;80.95;99160.84;4997530;28;19926;-63
2023/01/04 02:27:54;;;;;;;;;;;;;;;3.64;80.80;99155.56;4992537;28;20379;-59
2023/01/04 02:30:43;;;;;;;;;;;;;;;3.64;80.50;99145.63;4990359;28;20291;-59
2023/01/04 02:33:18;;;;;;;;;;;;;;;3.80;80.47;99143.28;4993537;28;19926;-59
2023/01/04 02:35:49;;;;;;;;;;;;;;;3.74;80.57;99139.66;4985295;28;19992;-59
2023/01/04 02:38:20;;;;;;;;;;;;;;;3.77;81.08;99132.97;4994052;28;19934;-60
2023/01/04 02:40:49;;;;;;;;;;;;;;;3.75;81.15;99132.41;4993144;28;19926;-60
2023/01/04 02:46:08;;;;;;;;;;;;;;;3.71;81.26;99140.13;4992167;28;19929;-59
2023/01/04 02:51:29;;;;;;;;;;;;;;;3.80;81.85;99143.28;4990980;28;19941;-61
2023/01/04 02:57:10;;;;;;;;;;;;;;;3.75;82.13;99151.22;4991031;28;19933;-60
2023/01/04 02:59:50;;;;;;;;;;;;;;;3.84;82.02;99152.50;4993189;28;20015;-60
2023/01/04 03:08:01;;;;;;;;;;;;;;;3.88;81.58;99135.63;4991439;28;19925;-59
2023/01/04 03:10:31;;;;;;;;;;;;;;;3.94;82.13;99136.56;4990630;28;20402;-59
2023/01/04 03:12:59;;;;;;;;;;;;;;;3.84;82.27;99129.13;4991761;28;19961;-59
2023/01/04 03:15:28;;;;;;;;;;;;;;;3.87;82.37;99123.25;4991212;28;19926;-59
2023/01/04 03:17:57;;;;;;;;;;;;;;;3.90;81.90;99127.34;4988030;28;19930;-64
2023/01/04 03:20:28;;;;;;;;;;;;;;;3.98;82.15;99118.91;4993716;28;19930;-60
2023/01/04 03:36:55;;;;;;;;;;;;;;;4.00;81.88;99122.19;4995799;28;19930;-60
2023/01/04 03:50:41;;;;;;;;;;;;;;;4.04;81.51;99096.44;5006726;28;19926;-59
2023/01/04 03:53:37;;;;;;;;;;;;;;;4.11;81.12;99096.31;4993876;28;20387;-59
2023/01/04 03:56:07;;;;;;;;;;;;;;;4.18;81.29;99102.34;4990137;28;19976;-59
2023/01/04 03:58:39;;;;;;;;;;;;;;;4.11;81.63;99097.13;4990843;28;20346;-59
2023/01/04 04:01:07;;;;;;;;;;;;;;;4.26;81.00;99093.91;4997960;28;19926;-60
2023/01/04 04:09:06;;;;;;;;;;;;;;;4.18;80.62;99086.22;4988975;28;19958;-61
2023/01/04 04:11:36;;;;;;;;;;;;;;;4.20;80.78;99081.41;4998578;28;19992;-59
2023/01/04 04:14:03;;;;;;;;;;;;;;;4.17;80.72;99077.34;4990348;28;19933;-60
2023/01/04 04:16:31;;;;;;;;;;;;;;;4.17;80.82;99061.19;4986886;28;19964;-59
2023/01/04 04:19:00;;;;;;;;;;;;;;;4.26;80.73;99063.47;4988906;28;20312;-59
2023/01/04 04:21:34;;;;;;;;;;;;;;;4.29;80.46;99060.31;4994267;28;19929;-59
2023/01/04 04:24:03;;;;;;;;;;;;;;;4.28;79.65;99053.31;4991114;28;19933;-60
2023/01/04 04:26:31;;;;;;;;;;;;;;;4.19;79.87;99053.69;5000355;28;19930;-59
2023/01/04 04:29:00;;;;;;;;;;;;;;;4.22;79.89;99054.28;5004935;28;19984;-59
2023/01/04 04:31:28;;;;;;;;;;;;;;;4.10;79.96;99065.91;4985396;28;19926;-59
2023/01/04 04:33:56;;;;;;;;;;;;;;;4.16;80.14;99051.50;4990637;28;19932;-60
2023/01/04 04:36:25;;;;;;;;;;;;;;;4.12;80.06;99054.91;4991808;28;19926;-59
2023/01/04 04:38:53;;;;;;;;;;;;;;;4.28;79.03;99062.19;4990978;28;19925;-59
2023/01/04 04:41:40;;;;;;;;;;;;;;;4.22;78.90;99055.09;5005585;28;20418;-60
2023/01/04 04:44:14;;;;;;;;;;;;;;;4.17;78.83;99052.31;4990659;28;19941;-60
2023/01/04 04:46:42;;;;;;;;;;;;;;;4.18;79.43;99044.00;4984929;28;19961;-60
2023/01/04 04:49:12;;;;;;;;;;;;;;;4.22;79.19;99054.28;4991587;28;19965;-60
2023/01/04 04:52:04;;;;;;;;;;;;;;;4.09;79.53;99047.31;5011347;28;19930;-59
2023/01/04 04:54:32;;;;;;;;;;;;;;;3.96;79.64;99053.81;4989291;28;19984;-59
2023/01/04 04:57:00;;;;;;;;;;;;;;;4.18;79.87;99046.69;4991873;28;19937;-60
2023/01/04 04:59:30;;;;;;;;;;;;;;;4.18;79.38;99030.53;4991019;28;20314;-59
2023/01/04 05:01:58;;;;;;;;;;;;;;;4.17;79.28;99031.59;4981223;28;19980;-59
2023/01/04 05:04:26;;;;;;;;;;;;;;;4.26;78.93;99025.81;4989158;28;19936;-61
2023/01/04 05:06:56;;;;;;;;;;;;;;;4.18;79.60;99019.78;4989926;28;19933;-59
2023/01/04 05:09:24;;;;;;;;;;;;;;;4.24;78.72;99019.88;4994078;28;19933;-60
2023/01/04 05:14:39;;;;;;;;;;;;;;;4.36;78.86;99024.13;4985739;28;19926;-61
2023/01/04 05:17:08;;;;;;;;;;;;;;;4.25;78.96;99016.94;4982795;28;19929;-62
2023/01/04 05:19:36;;;;;;;;;;;;;;;4.13;79.85;99011.63;4992081;28;19965;-59
2023/01/04 05:22:03;;;;;;;;;;;;;;;4.31;79.62;99010.56;4994706;28;20446;-61
2023/01/04 05:24:31;;;;;;;;;;;;;;;4.33;79.73;99021.13;4995131;28;19926;-59
2023/01/04 05:27:27;;;;;;;;;;;;;;;4.30;79.46;99022.41;4994025;28;19925;-60
2023/01/04 05:32:42;;;;;;;;;;;;;;;4.32;79.81;99022.19;4994680;28;19933;-60
2023/01/04 05:35:09;;;;;;;;;;;;;;;4.37;79.92;99024.97;4994843;28;19925;-59
2023/01/04 05:37:37;;;;;;;;;;;;;;;4.41;80.12;99020.69;4994223;28;19930;-63
2023/01/04 05:40:05;;;;;;;;;;;;;;;4.49;79.79;99020.31;4994826;28;19933;-60
2023/01/04 05:42:33;;;;;;;;;;;;;;;4.38;80.28;99016.63;4996210;28;19929;-63
2023/01/04 05:45:04;;;;;;;;;;;;;;;4.45;80.37;99016.47;4995168;28;19926;-66
2023/01/04 05:47:32;;;;;;;;;;;;;;;4.57;79.74;99014.50;4994430;28;19933;-60
2023/01/04 05:50:00;;;;;;;;;;;;;;;4.51;79.83;99014.66;4993892;28;19929;-60
2023/01/04 05:52:28;;;;;;;;;;;;;;;4.57;79.88;99019.06;4994021;28;19930;-60
2023/01/04 05:54:56;;;;;;;;;;;;;;;4.53;79.56;99024.16;4993277;28;19933;-61
2023/01/04 05:57:24;;;;;;;;;;;;;;;4.50;79.69;99019.25;4994825;28;19936;-60
2023/01/04 05:59:52;;;;;;;;;;;;;;;4.30;80.44;99021.59;4993079;28;19926;-60
2023/01/04 06:02:22;;;;;;;;;;;;;;;4.35;79.91;99018.97;4987407;28;19930;-61
2023/01/04 06:04:51;;;;;;;;;;;;;;;4.37;80.29;99015.00;4992676;28;19953;-60
2023/01/04 06:07:25;;;;;;;;;;;;;;;4.38;80.33;99018.50;4992211;28;19995;-60
2023/01/04 06:09:53;;;;;;;;;;;;;;;4.49;80.23;99006.84;4994786;28;19961;-60
2023/01/04 06:12:24;;;;;;;;;;;;;;;4.52;80.21;99000.97;4993510;28;20299;-60
2023/01/04 06:15:17;;;;;;;;;;;;;;;4.47;79.77;98990.97;4992523;28;19926;-60
2023/01/04 06:17:47;;;;;;;;;;;;;;;4.59;79.81;98990.88;4989680;28;20299;-60
2023/01/04 06:20:15;;;;;;;;;;;;;;;4.50;79.96;98991.53;4991919;28;19926;-62
2023/01/04 06:22:43;;;;;;;;;;;;;;;4.58;80.30;98983.84;4994402;28;19930;-61
2023/01/04 06:25:11;;;;;;;;;;;;;;;4.63;79.76;98985.78;4992992;28;19926;-60
2023/01/04 06:27:38;;;;;;;;;;;;;;;4.57;80.58;98979.50;4995790;28;19925;-59
2023/01/04 06:30:07;;;;;;;;;;;;;;;4.80;79.21;98975.03;4987302;28;19972;-60
2023/01/04 06:32:35;;;;;;;;;;;;;;;4.68;79.67;98970.53;4992981;28;19933;-60
2023/01/04 06:35:05;;;;;;;;;;;;;;;4.67;80.14;98971.59;4993244;28;19983;-60
2023/01/04 06:37:34;;;;;;;;;;;;;;;4.76;79.90;98968.50;4992998;28;19949;-60
2023/01/04 06:40:04;;;;;;;;;;;;;;;4.88;79.84;98953.03;4997314;28;19926;-60
2023/01/04 06:42:46;;;;;;;;;;;;;;;4.87;79.71;98949.53;4989951;28;20394;-60
2023/01/04 06:45:15;;;;;;;;;;;;;;;4.91;79.58;98949.88;4986966;28;19926;-60
2023/01/04 06:47:43;;;;;;;;;;;;;;;4.85;79.54;98946.28;4992314;28;19926;-61
2023/01/04 06:50:12;;;;;;;;;;;;;;;4.83;79.27;98947.59;4991561;28;19932;-61
2023/01/04 06:52:41;;;;;;;;;;;;;;;4.95;79.30;98948.28;4984318;28;19949;-62
2023/01/04 06:55:10;;;;;;;;;;;;;;;4.94;78.95;98949.34;4992199;28;19926;-62
2023/01/04 06:57:38;;;;;;;;;;;;;;;4.95;78.89;98948.28;4988158;28;20009;-62
2023/01/04 07:00:08;;;;;;;;;;;;;;;4.85;79.27;98945.47;4988291;28;19980;-63
2023/01/04 07:02:36;;;;;;;;;;;;;;;4.83;79.81;98940.31;4992595;28;20016;-59
2023/01/04 07:05:04;;;;;;;;;;;;;;;4.88;79.82;98944.97;4994071;28;19936;-60
2023/01/04 07:07:34;;;;;;;;;;;;;;;5.02;79.09;98935.47;4994353;28;20020;-59
2023/01/04 07:10:02;;;;;;;;;;;;;;;5.03;79.08;98937.09;4989762;28;20342;-63
2023/01/04 07:12:36;;;;;;;;;;;;;;;5.05;79.14;98928.75;4992818;28;19930;-59
2023/01/04 07:18:06;;;;;;;;;;;;;;;5.01;79.24;98923.06;4990677;28;19929;-59
2023/01/04 07:20:34;;;;;;;;;;;;;;;5.07;78.36;98921.25;5006653;28;20070;-60
2023/01/04 07:23:04;;;;;;;;;;;;;;;5.04;78.78;98916.34;4991100;28;19926;-61
2023/01/04 07:25:32;;;;;;;;;;;;;;;5.18;78.16;98918.44;4990190;28;19925;-59
2023/01/04 07:28:00;;;;;;;;;;;;;;;5.14;77.90;98919.97;4991317;28;19933;-60
2023/01/04 07:30:28;;;;;;;;;;;;;;;5.20;78.34;98918.97;4984855;28;19929;-59
2023/01/04 07:32:56;;;;;;;;;;;;;;;5.17;78.06;98916.00;4991459;28;19944;-59
2023/01/04 07:35:24;;;;;;;;;;;;;;;5.23;78.03;98909.59;4990762;28;19925;-61
2023/01/04 07:37:52;;;;;;;;;;;;;;;5.33;77.22;98911.59;5003578;28;19926;-58
2023/01/04 07:40:26;;;;;;;;;;;;;;;5.25;77.76;98905.56;4987765;28;19955;-59
2023/01/04 07:42:56;;;;;;;;;;;;;;;5.24;77.99;98912.03;4990418;28;20414;-60
2023/01/04 07:45:24;;;;;;;;;;;;;;;5.36;77.88;98903.00;4987495;28;19940;-59
2023/01/04 07:47:52;;;;;;;;;;;;;;;5.45;77.63;98904.19;4992458;28;19932;-59
2023/01/04 07:50:21;;;;;;;;;;;;;;;5.42;77.25;98910.88;4992907;28;20016;-63
2023/01/04 07:52:50;;;;;;;;;;;;;;;5.53;77.15;98915.28;4990418;28;19936;-59
2023/01/04 07:55:18;;;;;;;;;;;;;;;5.46;77.45;98905.78;4992526;28;19932;-59
2023/01/04 07:58:14;;;;;;;;;;;;;;;5.49;77.40;98902.59;4992591;28;20501;-59
2023/01/04 08:00:43;;;;;;;;;;;;;;;5.57;77.23;98906.72;4986038;28;19991;-58
2023/01/04 08:03:11;;;;;;;;;;;;;;;5.59;77.70;98897.28;4990462;28;19925;-61
2023/01/04 08:05:41;;;;;;;;;;;;;;;5.55;77.25;98906.16;4992224;28;19933;-61
2023/01/04 08:08:08;;;;;;;;;;;;;;;5.50;78.05;98888.88;4991975;28;19925;-59
2023/01/04 08:10:36;;;;;;;;;;;;;;;5.59;78.40;98897.28;4992485;28;19926;-61
2023/01/04 08:13:05;;;;;;;;;;;;;;;5.68;78.24;98903.84;4990624;28;19930;-59
2023/01/04 08:15:36;;;;;;;;;;;;;;;5.82;77.21;98900.75;4987206;28;20371;-59
2023/01/04 08:18:04;;;;;;;;;;;;;;;5.77;78.05;98899.66;4992042;28;19929;-60
2023/01/04 08:20:35;;;;;;;;;;;;;;;5.84;77.72;98891.34;4990692;28;19933;-59
2023/01/04 08:23:03;;;;;;;;;;;;;;;5.73;77.84;98893.13;4990246;28;20512;-60
2023/01/04 08:25:32;;;;;;;;;;;;;;;5.81;78.06;98889.16;4991219;28;20310;-59
2023/01/04 08:28:00;;;;;;;;;;;;;;;5.85;78.08;98884.88;4981872;28;20390;-59
2023/01/04 08:30:28;;;;;;;;;;;;;;;5.76;78.33;98870.25;4987601;28;19930;-60
2023/01/04 08:32:57;;;;;;;;;;;;;;;5.87;78.43;98881.94;4991901;28;19936;-60
2023/01/04 08:35:25;;;;;;;;;;;;;;;5.82;78.50;98873.81;4992005;28;19933;-60
2023/01/04 08:37:54;;;;;;;;;;;;;;;5.86;78.15;98867.63;4991992;28;20321;-62
2023/01/04 08:40:52;;;;;;;;;;;;;;;5.92;78.53;98860.44;4991883;28;19925;-67
2023/01/04 08:43:29;;;;;;;;;;;;;;;5.86;78.77;98859.53;4991616;28;19957;-60
2023/01/04 08:45:57;;;;;;;;;;;;;;;5.89;79.24;98856.31;4987868;28;19932;-61
2023/01/04 08:48:26;;;;;;;;;;;;;;;5.92;78.42;98846.94;4992271;28;19972;-60
2023/01/04 08:51:20;;;;;;;;;;;;;;;6.07;77.87;98832.75;4994731;28;19933;-60
2023/01/04 08:53:48;;;;;;;;;;;;;;;6.01;77.73;98829.19;4995166;28;19955;-59
2023/01/04 08:56:17;;;;;;;;;;;;;;;6.03;78.38;98818.97;4995795;28;19926;-64
2023/01/04 08:58:45;;;;;;;;;;;;;;;6.14;78.13;98814.47;4997481;28;19949;-62
2023/01/04 09:01:13;;;;;;;;;;;;;;;6.16;77.88;98817.69;4991957;28;19929;-62
2023/01/04 09:03:42;;;;;;;;;;;;;;;6.30;77.73;98814.28;4997768;28;19926;-60
2023/01/04 09:06:11;;;;;;;;;;;;;;;6.33;77.36;98809.44;4997724;28;19926;-59
2023/01/04 09:08:39;;;;;;;;;;;;;;;6.46;76.91;98811.69;4997610;28;19936;-60
2023/01/04 09:11:08;;;;;;;;;;;;;;;6.41;76.95;98796.25;4996323;28;19926;-63
2023/01/04 09:13:36;;;;;;;;;;;;;;;6.39;77.64;98797.59;4995139;28;20402;-60
2023/01/04 09:16:06;;;;;;;;;;;;;;;6.45;76.91;98813.56;4987519;28;19930;-59
2023/01/04 09:18:34;;;;;;;;;;;;;;;6.43;76.71;98804.09;4993209;28;19926;-59
2023/01/04 09:21:06;;;;;;;;;;;;;;;6.46;77.16;98806.28;4994568;28;19925;-59
2023/01/04 09:23:34;;;;;;;;;;;;;;;6.42;77.27;98807.88;4994987;28;19948;-60
2023/01/04 09:26:04;;;;;;;;;;;;;;;6.47;76.43;98805.19;4994424;28;20040;-60
2023/01/04 09:28:37;;;;;;;;;;;;;;;6.51;76.37;98814.41;4994906;28;19930;-63
2023/01/04 09:31:05;;;;;;;;;;;;;;;6.49;76.20;98798.44;4990169;28;19984;-60
2023/01/04 09:33:33;;;;;;;;;;;;;;;6.54;76.68;98800.34;4993335;28;19925;-60
2023/01/04 09:36:24;;;;;;;;;;;;;;;6.60;76.63;98796.59;4993535;28;20449;-60
2023/01/04 09:38:52;;;;;;;;;;;;;;;6.57;76.95;98799.84;4993053;28;19926;-59
2023/01/04 09:41:24;;;;;;;;;;;;;;;6.61;76.82;98800.16;4993548;28;19930;-60
2023/01/04 09:43:53;;;;;;;;;;;;;;;6.66;76.39;98792.88;4983360;28;19926;-59
2023/01/04 09:46:25;;;;;;;;;;;;;;;6.71;75.68;98800.16;4986705;28;19952;-62
2023/01/04 09:48:53;;;;;;;;;;;;;;;6.78;75.02;98801.56;4994760;28;19926;-59
2023/01/04 09:51:22;;;;;;;;;;;;;;;6.82;74.35;98789.16;4995339;28;19937;-60
2023/01/04 09:56:47;;;;;;;;;;;;;;;6.99;72.67;98798.94;5008553;28;19940;-63
2023/01/04 09:59:16;;;;;;;;;;;;;;;7.23;70.97;98797.34;4994274;28;19930;-60
2023/01/04 10:01:48;;;;;;;;;;;;;;;7.30;69.63;98794.41;4987370;28;19933;-60
2023/01/04 10:04:18;;;;;;;;;;;;;;;7.23;69.82;98786.53;4990043;28;19926;-60
2023/01/04 10:06:46;;;;;;;;;;;;;;;7.28;69.83;98783.03;4990531;28;19926;-60
2023/01/04 10:09:15;;;;;;;;;;;;;;;7.33;70.03;98781.13;4994577;28;20909;-60
2023/01/04 10:11:47;;;;;;;;;;;;;;;7.46;69.35;98773.59;4995225;28;19965;-60
2023/01/04 10:14:33;;;;;;;;;;;;;;;7.57;67.51;98769.81;4995725;28;19926;-60
2023/01/04 10:17:04;;;;;;;;;;;;;;;7.59;66.55;98763.03;4986942;28;19965;-59
2023/01/04 10:19:55;;;;;;;;;;;;;;;7.66;65.86;98762.75;4994535;28;19976;-59
2023/01/04 10:22:45;;;;;;;;;;;;;;;7.71;66.75;98765.47;4984763;28;20386;-59
2023/01/04 10:25:20;;;;;;;;;;;;;;;7.70;66.15;98763.84;4993973;28;19941;-59
2023/01/04 10:27:49;;;;;;;;;;;;;;;7.63;66.11;98752.50;4993788;28;19925;-59
2023/01/04 10:30:21;;;;;;;;;;;;;;;7.64;66.46;98756.81;4989619;28;19937;-58
2023/01/04 10:32:50;;;;;;;;;;;;;;;7.54;67.17;98740.59;4990127;28;19937;-59
2023/01/04 10:35:20;;;;;;;;;;;;;;;7.56;67.95;98746.53;4994043;28;19926;-58
2023/01/04 10:37:48;;;;;;;;;;;;;;;7.64;67.97;98735.19;4993226;28;19960;-61
2023/01/04 10:40:17;;;;;;;;;;;;;;;7.57;67.67;98740.88;4993618;28;20382;-60
2023/01/04 10:42:51;;;;;;;;;;;;;;;7.60;67.19;98726.00;4993389;28;19926;-61
2023/01/04 10:45:22;;;;;;;;;;;;;;;7.55;68.33;98717.88;4977215;28;19932;-60
2023/01/04 10:47:53;;;;;;;;;;;;;;;7.69;68.80;98724.38;4992999;28;20395;-59
2023/01/04 10:50:23;;;;;;;;;;;;;;;7.70;68.41;98719.78;4992689;28;19930;-59
2023/01/04 10:52:52;;;;;;;;;;;;;;;7.76;67.71;98713.25;4988983;28;19976;-59
2023/01/04 10:55:21;;;;;;;;;;;;;;;7.76;67.06;98703.25;4992896;28;19944;-58
2023/01/04 10:58:19;;;;;;;;;;;;;;;7.82;66.69;98696.75;4993341;28;19940;-60
2023/01/04 11:00:47;;;;;;;;;;;;;;;7.87;66.99;98698.63;4983604;28;19926;-58
2023/01/04 11:03:16;;;;;;;;;;;;;;;7.94;65.74;98698.38;4993174;28;20383;-59
2023/01/04 11:05:45;;;;;;;;;;;;;;;7.92;65.77;98689.69;4992983;28;19925;-60
2023/01/04 11:08:16;;;;;;;;;;;;;;;7.91;66.01;98685.38;4994637;28;19956;-64
2023/01/04 11:10:45;;;;;;;;;;;;;;;7.97;65.76;98686.97;4997142;28;19936;-59
2023/01/04 11:13:14;;;;;;;;;;;;;;;7.98;65.66;98686.69;4995275;28;20056;-58
2023/01/04 11:15:49;;;;;;;;;;;;;;;8.08;64.41;98688.56;4987473;28;19933;-60
2023/01/04 11:18:18;;;;;;;;;;;;;;;8.00;65.35;98687.25;4992976;28;19934;-59
2023/01/04 11:20:46;;;;;;;;;;;;;;;8.10;64.71;98689.13;4992895;28;19925;-59
2023/01/04 11:23:14;;;;;;;;;;;;;;;7.98;65.16;98680.47;4992406;28;19948;-59
2023/01/04 11:25:44;;;;;;;;;;;;;;;7.88;65.78;98676.72;4992910;28;19932;-59
2023/01/04 11:28:18;;;;;;;;;;;;;;;7.95;65.27;98678.34;4993659;28;19926;-59
2023/01/04 11:30:50;;;;;;;;;;;;;;;8.05;64.23;98678.31;4986867;28;19930;-59
2023/01/04 11:33:19;;;;;;;;;;;;;;;8.12;64.12;98668.78;4993315;28;19926;-61
2023/01/04 11:35:48;;;;;;;;;;;;;;;8.12;63.91;98668.00;4993156;28;19933;-60
2023/01/04 11:38:16;;;;;;;;;;;;;;;8.13;64.23;98670.41;4994118;28;19932;-66
2023/01/04 11:40:56;;;;;;;;;;;;;;;8.19;64.18;98665.78;4995791;28;20366;-60
2023/01/04 11:43:30;;;;;;;;;;;;;;;8.25;64.02;98666.56;4993931;28;20602;-60
2023/01/04 11:46:03;;;;;;;;;;;;;;;8.27;63.09;98654.41;4989318;28;19925;-60
2023/01/04 11:48:45;;;;;;;;;;;;;;;8.25;64.08;98648.44;4994875;28;19936;-62
2023/01/04 11:51:18;;;;;;;;;;;;;;;8.33;62.95;98639.75;4994739;28;19933;-67
2023/01/04 11:53:46;;;;;;;;;;;;;;;8.35;63.89;98632.13;4996725;28;19926;-66
2023/01/04 11:56:18;;;;;;;;;;;;;;;8.39;62.92;98637.84;4997471;28;20272;-59
2023/01/04 11:59:03;;;;;;;;;;;;;;;8.50;62.77;98633.19;4996720;28;19933;-61
2023/01/04 12:01:33;;;;;;;;;;;;;;;8.49;63.29;98626.16;4991229;28;19960;-58
2023/01/04 12:04:02;;;;;;;;;;;;;;;8.50;63.56;98619.63;4995608;28;19925;-60
2023/01/04 12:06:32;;;;;;;;;;;;;;;8.57;64.03;98620.94;4986776;28;19933;-59
2023/01/04 12:09:00;;;;;;;;;;;;;;;8.60;63.06;98614.16;4988607;28;20035;-59
2023/01/04 12:11:30;;;;;;;;;;;;;;;8.55;62.64;98622.31;4991443;28;19930;-60
2023/01/04 12:13:59;;;;;;;;;;;;;;;8.50;63.52;98614.22;4992877;28;19926;-59
2023/01/04 12:16:31;;;;;;;;;;;;;;;8.59;62.89;98599.81;4979490;28;19941;-65
2023/01/04 12:19:01;;;;;;;;;;;;;;;8.61;62.52;98577.84;4988150;28;20279;-60
2023/01/04 12:21:31;;;;;;;;;;;;;;;8.68;62.84;98583.75;4989836;28;19940;-61
2023/01/04 12:23:59;;;;;;;;;;;;;;;8.68;62.53;98578.34;4989941;28;19932;-60
2023/01/04 12:26:27;;;;;;;;;;;;;;;8.72;62.42;98568.56;4990013;28;19926;-60
2023/01/04 12:32:23;;;;;;;;;;;;;;;8.88;62.14;98582.78;4984662;28;19929;-59
2023/01/04 12:34:53;;;;;;;;;;;;;;;8.89;62.75;98573.56;5004640;28;20302;-60
2023/01/04 12:37:48;;;;;;;;;;;;;;;9.01;61.56;98584.06;4993086;28;19932;-59
2023/01/04 12:40:37;;;;;;;;;;;;;;;9.06;62.41;98578.59;4992629;28;19926;-59
2023/01/04 12:43:19;;;;;;;;;;;;;;;9.07;62.37;98572.06;4961019;28;19934;-59
2023/01/04 12:49:02;;;;;;;;;;;;;;;9.06;62.89;98562.34;4987915;28;20395;-59
2023/01/04 12:51:29;;;;;;;;;;;;;;;9.23;62.06;98551.84;4990733;28;19976;-63
2023/01/04 12:54:30;;;;;;;;;;;;;;;9.26;61.81;98555.88;4992457;28;20410;-61
2023/01/04 12:57:23;;;;;;;;;;;;;;;9.30;62.13;98552.31;4983339;28;19965;-59
2023/01/04 12:59:55;;;;;;;;;;;;;;;9.29;62.16;98545.28;4988628;28;19957;-59
2023/01/04 13:02:24;;;;;;;;;;;;;;;9.27;62.39;98531.22;4985435;28;20299;-61
2023/01/04 13:04:53;;;;;;;;;;;;;;;9.29;62.46;98533.63;4991351;28;20383;-60
2023/01/04 13:07:43;;;;;;;;;;;;;;;9.29;63.06;98530.91;4986135;28;19926;-61
2023/01/04 13:10:31;;;;;;;;;;;;;;;9.31;62.94;98531.44;4991946;28;19930;-61
2023/01/04 13:13:02;;;;;;;;;;;;;;;9.32;62.98;98517.59;4985262;28;19960;-60
2023/01/04 13:15:35;;;;;;;;;;;;;;;9.39;62.71;98507.22;4985090;28;19950;-60
2023/01/04 13:18:04;;;;;;;;;;;;;;;9.34;63.14;98514.59;4986595;28;19929;-60
2023/01/04 13:20:32;;;;;;;;;;;;;;;9.27;63.53;98506.81;4992202;28;19930;-59
2023/01/04 13:23:01;;;;;;;;;;;;;;;9.32;63.59;98509.47;4989747;28;19933;-59
2023/01/04 13:25:29;;;;;;;;;;;;;;;9.40;63.70;98495.25;5003095;28;19930;-59
2023/01/04 13:27:58;;;;;;;;;;;;;;;9.36;64.29;98521.34;4992019;28;20363;-60
2023/01/04 13:30:34;;;;;;;;;;;;;;;9.43;64.07;98502.03;4984690;28;19933;-59
2023/01/04 13:33:08;;;;;;;;;;;;;;;9.41;64.04;98526.69;4991476;28;20461;-59
2023/01/04 13:35:59;;;;;;;;;;;;;;;9.39;64.10;98520.78;4991732;28;19930;-60
2023/01/04 13:38:30;;;;;;;;;;;;;;;9.36;64.38;98526.75;4986853;28;20269;-59
2023/01/04 13:40:58;;;;;;;;;;;;;;;9.40;64.52;98525.09;4991649;28;19961;-60
2023/01/04 13:43:36;;;;;;;;;;;;;;;9.37;64.67;98539.22;4995112;28;19934;-59
2023/01/04 13:46:13;;;;;;;;;;;;;;;9.30;65.03;98527.91;4988624;28;19934;-62
2023/01/04 13:48:43;;;;;;;;;;;;;;;9.28;65.36;98515.75;4992898;28;19925;-61
2023/01/04 13:51:14;;;;;;;;;;;;;;;9.32;65.23;98495.91;4995312;28;19930;-60
2023/01/04 13:53:43;;;;;;;;;;;;;;;9.28;65.52;98508.44;4991748;28;19949;-60
2023/01/04 13:56:17;;;;;;;;;;;;;;;9.32;65.59;98495.91;4995537;28;19925;-61
2023/01/04 13:58:45;;;;;;;;;;;;;;;9.35;65.75;98467.41;4994223;28;19933;-60
2023/01/04 14:01:15;;;;;;;;;;;;;;;9.40;65.39;98479.00;4991435;28;19932;-60
2023/01/04 14:03:43;;;;;;;;;;;;;;;9.38;65.57;98477.69;4995707;28;20857;-60
2023/01/04 14:06:23;;;;;;;;;;;;;;;9.32;65.78;98459.84;4994695;28;19972;-59
2023/01/04 14:08:54;;;;;;;;;;;;;;;9.35;65.93;98461.97;4994409;28;19926;-60
2023/01/04 14:14:27;;;;;;;;;;;;;;;9.36;66.21;98460.88;4984928;28;20013;-60
2023/01/04 14:17:09;;;;;;;;;;;;;;;9.38;66.27;98464.94;4985691;28;19926;-60
2023/01/04 14:19:55;;;;;;;;;;;;;;;9.40;66.00;98454.59;4988242;28;19961;-60
2023/01/04 14:22:33;;;;;;;;;;;;;;;9.36;66.51;98452.75;4989184;28;19936;-60
2023/01/04 14:25:22;;;;;;;;;;;;;;;9.41;66.40;98466.25;4994188;28;19926;-59
2023/01/04 14:27:52;;;;;;;;;;;;;;;9.41;66.54;98458.91;4993503;28;19926;-60
2023/01/04 14:30:24;;;;;;;;;;;;;;;9.36;66.86;98469.81;4985959;28;19960;-60
2023/01/04 14:32:55;;;;;;;;;;;;;;;9.48;66.69;98465.88;4993358;28;20286;-59